地図

経路データ

SID SEASON NUMBER BASIN SUBBASIN NAME ISO_TIME NATURE LAT LON WMO_WIND WMO_PRES WMO_AGENCY TRACK_TYPE DIST2LAND LANDFALL IFLAG USA_AGENCY USA_ATCF_ID USA_LAT USA_LON USA_RECORD USA_STATUS USA_WIND USA_PRES USA_SSHS USA_R34_NE USA_R34_SE USA_R34_SW USA_R34_NW USA_R50_NE USA_R50_SE USA_R50_SW USA_R50_NW USA_R64_NE USA_R64_SE USA_R64_SW USA_R64_NW USA_POCI USA_ROCI USA_RMW USA_EYE TOKYO_LAT TOKYO_LON TOKYO_GRADE TOKYO_WIND TOKYO_PRES TOKYO_R50_DIR TOKYO_R50_LONG TOKYO_R50_SHORT TOKYO_R30_DIR TOKYO_R30_LONG TOKYO_R30_SHORT TOKYO_LAND CMA_LAT CMA_LON CMA_CAT CMA_WIND CMA_PRES HKO_LAT HKO_LON HKO_CAT HKO_WIND HKO_PRES NEWDELHI_LAT NEWDELHI_LON NEWDELHI_GRADE NEWDELHI_WIND NEWDELHI_PRES NEWDELHI_CI NEWDELHI_DP NEWDELHI_POCI REUNION_LAT REUNION_LON REUNION_TYPE REUNION_WIND REUNION_PRES REUNION_TNUM REUNION_CI REUNION_RMW REUNION_R34_NE REUNION_R34_SE REUNION_R34_SW REUNION_R34_NW REUNION_R50_NE REUNION_R50_SE REUNION_R50_SW REUNION_R50_NW REUNION_R64_NE REUNION_R64_SE REUNION_R64_SW REUNION_R64_NW BOM_LAT BOM_LON BOM_TYPE BOM_WIND BOM_PRES BOM_TNUM BOM_CI BOM_RMW BOM_R34_NE BOM_R34_SE BOM_R34_SW BOM_R34_NW BOM_R50_NE BOM_R50_SE BOM_R50_SW BOM_R50_NW BOM_R64_NE BOM_R64_SE BOM_R64_SW BOM_R64_NW BOM_ROCI BOM_POCI BOM_EYE BOM_POS_METHOD BOM_PRES_METHOD NADI_LAT NADI_LON NADI_CAT NADI_WIND NADI_PRES WELLINGTON_LAT WELLINGTON_LON WELLINGTON_WIND WELLINGTON_PRES DS824_LAT DS824_LON DS824_STAGE DS824_WIND DS824_PRES TD9636_LAT TD9636_LON TD9636_STAGE TD9636_WIND TD9636_PRES TD9635_LAT TD9635_LON TD9635_WIND TD9635_PRES TD9635_ROCI NEUMANN_LAT NEUMANN_LON NEUMANN_CLASS NEUMANN_WIND NEUMANN_PRES MLC_LAT MLC_LON MLC_CLASS MLC_WIND MLC_PRES USA_GUST BOM_GUST BOM_GUST_PER REUNION_GUST REUNION_GUST_PER USA_SEAHGT USA_SEARAD_NE USA_SEARAD_SE USA_SEARAD_SW USA_SEARAD_NW STORM_SPEED STORM_DIR
1986343N05176 1986 117 WP MM MARGE 1986-12-09 00:00:00 NR 4.50000 175.600 main 2186 2162 __________O___ -1 4.50000 175.600 0 4 250
1986343N05176 1986 117 WP MM MARGE 1986-12-09 03:00:00 NR 4.42350 175.394 main 2162 2146 __________P___ -1 4.42350 175.394 0 4 250
1986343N05176 1986 117 WP MM MARGE 1986-12-09 06:00:00 NR 4.34757 175.190 main 2138 2122 __________P___ -1 4.34757 175.190 0 4 249
1986343N05176 1986 117 WP MM MARGE 1986-12-09 09:00:00 NR 4.27286 174.991 main 2122 2098 __________P___ -1 4.27286 174.991 0 4 249
1986343N05176 1986 117 WP MM MARGE 1986-12-09 12:00:00 NR 4.20000 174.800 main 2098 2074 __________O___ -1 4.20000 174.800 0 15 4 249
1986343N05176 1986 117 WP MM MARGE 1986-12-09 15:00:00 NR 4.13214 174.616 main 2074 2058 __________P___ -1 4.13214 174.616 0 15 4 252
1986343N05176 1986 117 WP MM MARGE 1986-12-09 18:00:00 NR 4.08243 174.430 main 2058 2042 __________P___ -1 4.08243 174.430 0 15 4 260
1986343N05176 1986 117 WP MM MARGE 1986-12-09 21:00:00 NR 4.06651 174.229 main 2042 2026 __________P___ -1 4.06651 174.229 0 15 4 272
1986343N05176 1986 117 WP MM MARGE 1986-12-10 00:00:00 NR 4.10000 174.000 main 2026 2018 __________O___ -1 4.10000 174.000 0 15 5 287
1986343N05176 1986 117 WP MM MARGE 1986-12-10 03:00:00 NR 4.21185 173.741 main 2010 2003 __________P___ -1 4.21185 173.741 0 15 6 296
1986343N05176 1986 117 WP MM MARGE 1986-12-10 06:00:00 NR 4.36996 173.453 main 2011 1995 __________P___ -1 4.36996 173.453 0 15 7 299
1986343N05176 1986 117 WP MM MARGE 1986-12-10 09:00:00 NR 4.54308 173.138 main 1988 1981 __________P___ -1 4.54308 173.138 0 15 7 297
1986343N05176 1986 117 WP MM MARGE 1986-12-10 12:00:00 NR 4.70000 172.800 main 1982 1967 __________O___ -1 4.70000 172.800 0 15 8 290
1986343N05176 1986 117 WP MM MARGE 1986-12-10 15:00:00 NR 4.79661 172.430 main 1961 1946 __________P___ -1 4.79661 172.430 0 15 8 283
1986343N05176 1986 117 WP MM MARGE 1986-12-10 18:00:00 NR 4.87258 172.042 main 1940 1919 __________P___ -1 4.87258 172.042 0 15 8 280
1986343N05176 1986 117 WP MM MARGE 1986-12-10 21:00:00 NR 4.93724 171.658 main 1919 1900 __________P___ -1 4.93724 171.658 0 15 8 280
1986343N05176 1986 117 WP MM MARGE 1986-12-11 00:00:00 NR 5.00000 171.300 main 1900 1887 __________O___ -1 5.00000 171.300 0 15 7 282
1986343N05176 1986 117 WP MM MARGE 1986-12-11 03:00:00 NR 5.07897 170.992 main 1889 1869 __________P___ -1 5.07897 170.992 0 15 6 285
1986343N05176 1986 117 WP MM MARGE 1986-12-11 06:00:00 NR 5.15738 170.713 main 1878 1865 __________P___ -1 5.15738 170.713 0 15 6 286
1986343N05176 1986 117 WP MM MARGE 1986-12-11 09:00:00 NR 5.23211 170.452 main 1865 1856 __________P___ -1 5.23211 170.452 0 15 5 286
1986343N05176 1986 117 WP MM MARGE 1986-12-11 12:00:00 NR 5.30000 170.200 main 1856 1843 __________O___ -1 5.30000 170.200 0 15 5 283
1986343N05176 1986 117 WP MM MARGE 1986-12-11 15:00:00 NR 5.34486 169.971 main 1843 1837 __________P___ -1 5.34486 169.971 0 15 5 281
1986343N05176 1986 117 WP MM MARGE 1986-12-11 18:00:00 NR 5.38478 169.745 main 1835 1823 __________P___ -1 5.38478 169.745 0 15 5 280
1986343N05176 1986 117 WP MM MARGE 1986-12-11 21:00:00 NR 5.43232 169.496 main 1823 1823 __________P___ -1 5.43232 169.496 0 15 3 131
1986343N05176 1986 117 WP MM MARGE 1986-12-12 00:00:00 TS 5.20000 169.960 main 1834 1825 __O_______O___ -1 4.00000 173.000 0 19 1004 5.50000 169.200 0 15 6 122
1986343N05176 1986 117 WP MM MARGE 1986-12-12 03:00:00 TS 5.14279 169.968 main 1825 1812 __P_______P___ -1 4.23771 172.238 0 19 1004 5.59533 168.833 0 17 3 264
1986343N05176 1986 117 WP MM MARGE 1986-12-12 06:00:00 TS 5.16875 169.646 1002 tokyo main 1810 1786 _OO_______P___ -1 5.00000 169.000 2 1002 0 0 0 4.50000 171.500 0 19 1004 5.71251 168.417 0 20 8 278
1986343N05176 1986 117 WP MM MARGE 1986-12-12 09:00:00 TS 5.25429 169.202 main 1796 1767 _PP_______P___ -1 5.00008 168.500 2 1002 0 0 4.78728 170.788 0 19 1004 5.84842 167.968 0 22 11 280
1986343N05176 1986 117 WP MM MARGE 1986-12-12 12:00:00 TS 5.36364 168.545 1002 tokyo main 1766 1735 _OO_______O___ -1 5.00000 168.000 2 1002 0 0 0 5.00000 170.000 0 19 1004 6.00000 167.500 0 25 13 276
1986343N05176 1986 117 WP MM MARGE 1986-12-12 15:00:00 TS 5.39932 167.862 main 1735 1701 _PP_______P___ -1 4.99996 167.500 2 1002 0 0 5.03750 169.037 0 21 1003 6.16051 167.047 0 25 14 273
1986343N05176 1986 117 WP MM MARGE 1986-12-12 18:00:00 TS 5.44494 167.193 1002 tokyo main 1701 1681 _OO_______P___ -1 5.00000 167.000 2 1002 0 0 0 5.00000 168.000 1 23 1002 6.33482 166.580 0 25 14 273
1986343N05176 1986 117 WP MM MARGE 1986-12-12 21:00:00 TS 5.48061 166.507 main 1681 1661 _PP_______P___ -1 4.96246 166.500 2 1002 0 0 4.96263 166.925 1 23 1002 6.51673 166.097 0 25 13 275
1986343N05176 1986 117 WP MM MARGE 1986-12-13 00:00:00 TS 5.56667 165.867 1002 tokyo main 1667 1656 _OO_______O___ -1 5.00000 166.000 2 1002 0 0 0 5.00000 166.000 1 23 1002 6.70000 165.600 0 25 12 284
1986343N05176 1986 117 WP MM MARGE 1986-12-13 03:00:00 TS 5.77461 165.352 main 1671 1664 _PP_______P___ -1 5.21236 165.537 2 1002 0 0 5.21222 165.425 1 23 1002 6.89924 165.094 0 25 11 295
1986343N05176 1986 117 WP MM MARGE 1986-12-13 06:00:00 TS 6.03160 164.858 1002 tokyo main 1672 1666 _OO_______P___ -1 5.50000 165.000 2 1002 0 0 0 5.50000 165.000 1 23 1002 7.09481 164.573 0 25 12 294
1986343N05176 1986 117 WP MM MARGE 1986-12-13 09:00:00 TS 6.25601 164.271 main 1677 1649 _PP_______P___ -1 5.75016 164.250 2 1002 0 0 5.74989 164.522 1 23 1002 7.26796 164.040 0 25 13 290
1986343N05176 1986 117 WP MM MARGE 1986-12-13 12:00:00 TS 6.46667 163.667 1002 tokyo main 1658 1636 _OO_______O___ -1 6.00000 163.500 2 1002 0 0 0 6.00000 164.000 1 23 1002 7.40000 163.500 0 25 12 290
1986343N05176 1986 117 WP MM MARGE 1986-12-13 15:00:00 TS 6.66900 163.102 main 1640 1619 _PP_______P___ -1 6.26483 162.962 2 1002 0 0 6.25002 163.365 1 23 1002 7.49215 162.977 0 27 12 289
1986343N05176 1986 117 WP MM MARGE 1986-12-13 18:00:00 TS 6.84649 162.548 1002 tokyo main 1612 1592 _OO_______P___ -1 6.50000 162.500 2 1002 0 0 0 6.50000 162.700 1 23 1002 7.53947 162.445 0 30 12 287
1986343N05176 1986 117 WP MM MARGE 1986-12-13 21:00:00 TS 7.00065 161.992 main 1592 1566 _PP_______P___ -1 6.67995 162.000 2 1002 0 0 6.77992 162.085 1 23 1002 7.54208 161.890 0 32 11 283
1986343N05176 1986 117 WP MM MARGE 1986-12-14 00:00:00 TS 7.10000 161.433 1002 tokyo main 1559 1526 _OO_______O___ -1 6.80000 161.500 2 1002 0 0 0 7.00000 161.500 1 23 1002 7.50000 161.300 0 35 11 276
1986343N05176 1986 117 WP MM MARGE 1986-12-14 03:00:00 TS 7.11264 160.868 main 1526 1486 _PP_______P___ -1 6.87995 161.000 2 1002 0 0 7.07241 160.942 1 23 1002 7.38557 160.660 0 33 11 271
1986343N05176 1986 117 WP MM MARGE 1986-12-14 06:00:00 TS 7.11712 160.310 1002 tokyo main 1486 1445 OOOO______P___ jtwc_wp WP271986 7.30000 160.000 30 -1 6.90000 160.500 2 1002 0 0 0 7.10000 160.400 1 23 1002 7.40000 160.800 TD 30 1002 7.23491 159.987 0 32 11 268
1986343N05176 1986 117 WP MM MARGE 1986-12-14 09:00:00 TS 7.08080 159.715 main 1445 1413 PPPP______P___ WP271986 7.09776 159.287 30 -1 6.85745 160.000 2 1003 0 0 7.18503 159.820 1 26 1002 7.28015 160.207 TD 30 1002 7.09178 159.295 0 31 12 267
1986343N05176 1986 117 WP MM MARGE 1986-12-14 12:00:00 TS 7.05556 159.122 1004 tokyo main 1407 1376 OOOO______O___ jtwc_wp WP271986 7.00000 158.600 30 -1 6.80000 159.500 2 1004 0 0 0 7.30000 159.300 1 29 1002 7.20000 159.600 TD 30 1002 7.00000 158.600 1 30 12 271
1986343N05176 1986 117 WP MM MARGE 1986-12-14 15:00:00 TS 7.09199 158.553 main 1376 1348 PPPP______P___ WP271986 7.06985 157.950 30 -1 6.76240 159.015 2 1003 0 0 7.44990 158.913 1 29 1002 7.18491 158.965 TD 30 1002 6.99288 157.921 1 30 11 276
1986343N05176 1986 117 WP MM MARGE 1986-12-14 18:00:00 TS 7.16894 157.989 1002 tokyo main 1351 1323 OOOO______P___ jtwc_wp WP271986 7.20000 157.300 30 -1 6.80000 158.500 2 1002 0 0 0 7.60000 158.600 1 29 1002 7.20000 158.300 TD 30 1002 7.04469 157.243 1 30 11 278
1986343N05176 1986 117 WP MM MARGE 1986-12-14 21:00:00 TS 7.24618 157.425 main 1317 1300 PPPP______P___ WP271986 7.23496 156.600 30 -1 6.96235 157.945 2 1002 0 0 7.69956 158.397 1 29 1002 7.18489 157.615 TD 30 1002 7.14914 156.568 1 30 12 279
1986343N05176 1986 117 WP MM MARGE 1986-12-15 00:00:00 TS 7.36000 156.800 1002 tokyo main 1305 1280 OOOO______O___ jtwc_wp WP271986 7.30000 155.900 30 -1 7.20000 157.300 2 1002 0 0 0 7.80000 158.000 1 29 1002 7.20000 156.900 TD 30 1002 7.30000 155.900 1 30 14 282
1986343N05176 1986 117 WP MM MARGE 1986-12-15 03:00:00 TS 7.52444 156.059 main 1280 1263 PPPP______P___ WP271986 7.46987 155.243 32 -1 7.44246 156.537 2 1001 0 0 7.95033 157.105 1 29 1001 7.26988 156.165 TD 30 1001 7.48966 155.243 1 32 16 283
1986343N05176 1986 117 WP MM MARGE 1986-12-15 06:00:00 TS 7.72391 155.259 1000 tokyo main 1263 1253 OOOO______P___ jtwc_wp WP271986 7.70000 154.600 35 0 7.70000 155.700 2 1000 0 0 0 8.10000 156.000 1 29 1000 7.40000 155.400 TD 30 1000 7.71955 154.593 1 35 16 284
1986343N05176 1986 117 WP MM MARGE 1986-12-15 09:00:00 TS 7.92988 154.462 main 1253 1247 PPPP______P___ WP271986 7.95740 153.950 37 -1 7.95737 154.857 2 999 0 0 8.19255 154.955 1 29 1000 7.57744 154.600 TD 32 1000 7.96466 153.946 1 37 16 285
1986343N05176 1986 117 WP MM MARGE 1986-12-15 12:00:00 TS 8.14000 153.680 35 998 tokyo main 1249 1249 OOOO______O___ jtwc_wp WP271986 8.20000 153.300 40 0 8.20000 154.000 3 35 998 0 9 50 50 0 8.30000 154.000 1 29 1000 7.80000 153.800 TS 35 1000 8.20000 153.300 2 40 16 285
1986343N05176 1986 117 WP MM MARGE 1986-12-15 15:00:00 TS 8.33682 152.953 main 1254 1252 PPPP______P___ WP271986 8.35739 152.650 42 -1 8.40732 153.150 3 35 997 0 9 50 50 8.49192 153.285 1 29 1000 8.04232 153.042 TS 35 998 8.38513 152.638 2 42 15 285
1986343N05176 1986 117 WP MM MARGE 1986-12-15 18:00:00 TS 8.53146 152.235 35 996 tokyo main 1263 1263 OOOO______P___ jtwc_wp WP271986 8.50000 152.000 45 0 8.60000 152.300 3 35 996 0 9 50 50 0 8.70000 152.600 1 29 1000 8.30000 152.300 TS 35 996 8.55728 151.977 2 45 15 285
1986343N05176 1986 117 WP MM MARGE 1986-12-15 21:00:00 TS 8.72816 151.467 main 1279 1278 PPPP______P___ WP271986 8.69243 151.342 47 -1 8.80745 151.428 3 37 995 0 9 75 75 8.86523 151.693 1 33 998 8.54990 151.542 TS 37 995 8.72578 151.328 2 47 16 285
1986343N05176 1986 117 WP MM MARGE 1986-12-16 00:00:00 TS 8.92000 150.720 40 994 tokyo main 1285 1282 OOOO______O___ jtwc_wp WP271986 8.90000 150.700 50 0 9.00000 150.600 3 40 994 0 9 100 100 0 9.00000 150.800 2 38 996 8.80000 150.800 TS 40 995 8.90000 150.700 2 50 15 285
1986343N05176 1986 117 WP MM MARGE 1986-12-16 03:00:00 TS 9.09768 150.041 main 1287 1285 PPPP______P___ WP271986 9.09990 150.085 52 -1 9.14988 149.847 3 42 993 0 9 100 100 9.08473 150.097 2 38 996 9.05740 150.077 TS 45 993 9.09647 150.099 2 53 13 286
1986343N05176 1986 117 WP MM MARGE 1986-12-16 06:00:00 TS 9.27989 149.424 45 992 tokyo main 1296 1292 OOOO______P___ jtwc_wp WP271986 9.30000 149.500 55 0 9.30000 149.200 3 45 992 0 9 100 100 0 9.20000 149.500 2 38 996 9.30000 149.400 STS 50 992 9.29948 149.520 2 57 12 288
1986343N05176 1986 117 WP MM MARGE 1986-12-16 09:00:00 TS 9.48291 148.858 main 1310 1307 PPPP______P___ WP271986 9.49234 148.950 60 -1 9.49228 148.670 3 45 991 0 9 112 112 9.42734 148.935 2 43 993 9.49985 148.777 STS 52 990 9.50276 148.956 2 61 12 291
1986343N05176 1986 117 WP MM MARGE 1986-12-16 12:00:00 TS 9.70000 148.320 45 990 tokyo main 1325 1325 OOOO______O___ jtwc_wp WP271986 9.70000 148.400 65 1 9.70000 148.200 3 45 990 0 9 125 125 0 9.70000 148.400 3 48 990 9.70000 148.200 STS 55 989 9.70000 148.400 3 65 12 293
1986343N05176 1986 117 WP MM MARGE 1986-12-16 15:00:00 TS 9.93795 147.757 main 1345 1345 PPPP______P___ WP271986 9.96501 147.793 67 -1 9.89243 147.700 3 50 990 0 9 137 137 9.97241 147.850 3 48 987 9.95744 147.628 STS 55 988 9.90246 147.815 3 67 12 293
1986343N05176 1986 117 WP MM MARGE 1986-12-16 18:00:00 TS 10.1590 147.208 55 990 tokyo main 1378 1378 OOOO______P___ jtwc_wp WP271986 10.2000 147.200 70 1 10.1000 147.200 4 55 990 9 9 150 150 0 10.2000 147.300 3 48 985 10.2000 147.100 STS 55 987 10.0950 147.240 3 70 11 291
1986343N05176 1986 117 WP MM MARGE 1986-12-16 21:00:00 TS 10.3339 146.689 main 1389 1389 PPPP______P___ WP271986 10.3299 146.677 72 -1 10.3724 146.700 4 55 987 9 9 150 150 10.3300 146.735 3 53 985 10.3724 146.635 STS 57 987 10.2650 146.696 3 72 10 287
1986343N05176 1986 117 WP MM MARGE 1986-12-17 00:00:00 TS 10.4600 146.200 55 985 tokyo main 1412 1412 OOOO______O___ jtwc_wp WP271986 10.4000 146.200 75 1 10.6000 146.200 4 55 985 9 50 50 9 150 150 0 10.4000 146.200 3 58 985 10.5000 146.200 STS 60 987 10.4000 146.200 4 75 10 283
1986343N05176 1986 117 WP MM MARGE 1986-12-17 03:00:00 TS 10.5437 145.730 main 1415 1415 PPPP______P___ WP271986 10.4575 145.720 72 -1 10.6875 145.685 4 62 985 9 75 55 9 175 150 10.4574 145.720 3 58 985 10.6224 145.750 STS 60 986 10.4936 145.774 4 73 9 278
1986343N05176 1986 117 WP MM MARGE 1986-12-17 06:00:00 TS 10.5904 145.299 70 985 tokyo main 1430 1430 OOOO______P___ jtwc_wp WP271986 10.5000 145.300 70 1 10.7000 145.200 5 70 985 6 100 60 6 200 150 0 10.5000 145.300 3 58 985 10.7000 145.300 STS 60 985 10.5519 145.397 4 72 8 276
1986343N05176 1986 117 WP MM MARGE 1986-12-17 09:00:00 TS 10.6228 144.914 main 1435 1435 PPPP______P___ WP271986 10.5424 144.985 70 -1 10.7149 144.777 5 70 982 6 112 67 6 225 150 10.5499 144.935 3 58 985 10.7225 144.827 STS 60 985 10.5843 145.046 4 71 7 274
1986343N05176 1986 117 WP MM MARGE 1986-12-17 12:00:00 TS 10.6400 144.560 70 980 tokyo main 1440 1440 OOOO______O___ jtwc_wp WP271986 10.6000 144.700 70 1 10.7000 144.400 5 70 980 6 125 75 6 250 150 0 10.6000 144.600 3 58 985 10.7000 144.400 STS 60 985 10.6000 144.700 4 70 7 273
1986343N05176 1986 117 WP MM MARGE 1986-12-17 15:00:00 TS 10.6640 144.222 main 1458 1458 PPPP______P___ WP271986 10.7225 144.365 70 -1 10.6574 144.042 5 70 980 6 125 75 6 250 150 10.6649 144.258 3 58 982 10.6574 144.085 STS 60 984 10.6180 144.357 4 70 7 272
1986343N05176 1986 117 WP MM MARGE 1986-12-17 18:00:00 TS 10.6644 143.882 70 980 tokyo main 1465 1458 OOOO______P___ jtwc_wp WP271986 10.8000 144.000 70 1 10.6000 143.700 5 70 980 6 125 75 6 250 150 0 10.7000 143.900 3 58 980 10.6000 143.800 STS 60 984 10.6218 144.010 4 70 7 267
1986343N05176 1986 117 WP MM MARGE 1986-12-17 21:00:00 TS 10.6234 143.529 main 1463 1463 PPPP______P___ WP271986 10.7223 143.637 70 -1 10.5499 143.365 5 70 980 6 125 75 6 250 150 10.6799 143.530 3 58 980 10.5499 143.480 STS 60 984 10.6148 143.632 4 70 8 262
1986343N05176 1986 117 WP MM MARGE 1986-12-18 00:00:00 TS 10.5600 143.120 70 980 tokyo main 1470 1440 OOOO______O___ jtwc_wp WP271986 10.6000 143.200 70 1 10.5000 143.000 5 70 980 6 125 75 6 250 150 0 10.6000 143.100 3 58 980 10.5000 143.100 STS 60 984 10.6000 143.200 4 70 9 261
1986343N05176 1986 117 WP MM MARGE 1986-12-18 03:00:00 TS 10.4873 142.607 main 1440 1412 PPPP______P___ WP271986 10.5351 142.622 70 -1 10.4500 142.565 5 70 980 6 125 75 6 250 150 10.4351 142.557 3 58 980 10.4500 142.630 STS 60 983 10.5664 142.658 4 70 11 263
1986343N05176 1986 117 WP MM MARGE 1986-12-18 06:00:00 TS 10.4256 142.053 70 980 tokyo main 1412 1396 OOOO______P___ jtwc_wp WP271986 10.5000 142.000 70 1 10.4000 142.100 5 70 980 6 125 75 6 250 150 0 10.3000 142.000 3 58 980 10.4000 142.100 STS 60 983 10.5281 142.065 4 70 11 265
1986343N05176 1986 117 WP MM MARGE 1986-12-18 09:00:00 TS 10.3936 141.530 main 1393 1376 PPPP______P___ WP271986 10.4924 141.428 70 -1 10.3274 141.665 5 67 980 6 112 72 6 250 140 10.3198 141.543 3 58 980 10.3275 141.550 STS 60 982 10.5007 141.464 4 70 10 269
1986343N05176 1986 117 WP MM MARGE 1986-12-18 12:00:00 TS 10.4000 141.020 65 980 tokyo main 1376 1358 OOOO______O___ jtwc_wp WP271986 10.5000 140.900 70 1 10.3000 141.200 5 65 980 6 100 70 6 250 130 0 10.4000 141.100 3 58 980 10.3000 141.000 STS 60 982 10.5000 140.900 4 70 10 272
1986343N05176 1986 117 WP MM MARGE 1986-12-18 15:00:00 TS 10.4310 140.527 main 1354 1348 PPPP______P___ WP271986 10.4774 140.427 70 -1 10.3625 140.658 5 65 980 6 100 70 6 250 127 10.4275 140.607 3 63 977 10.3624 140.485 STS 62 981 10.5251 140.460 4 70 10 277
1986343N05176 1986 117 WP MM MARGE 1986-12-18 18:00:00 TS 10.5163 140.051 65 980 tokyo main 1348 1341 OOOO______P___ jtwc_wp WP271986 10.5000 140.000 70 1 10.5000 140.100 5 65 980 7 100 70 7 250 125 0 10.5000 140.100 4 68 975 10.5000 140.000 T 65 980 10.5814 140.057 4 70 9 284
1986343N05176 1986 117 WP MM MARGE 1986-12-18 21:00:00 TS 10.6603 139.602 main 1351 1344 PPPP______P___ WP271986 10.6273 139.622 70 -1 10.6774 139.592 5 67 977 7 100 70 7 250 125 10.6624 139.600 4 68 975 10.6624 139.542 T 65 977 10.6720 139.651 4 70 10 291
1986343N05176 1986 117 WP MM MARGE 1986-12-19 00:00:00 TS 10.8600 139.140 70 975 tokyo main 1356 1353 OOOO______O___ jtwc_wp WP271986 10.8000 139.200 70 1 10.9000 139.100 5 70 975 7 100 70 7 250 125 0 10.9000 139.100 4 68 975 10.9000 139.100 T 65 975 10.8000 139.200 4 70 11 296
1986343N05176 1986 117 WP MM MARGE 1986-12-19 03:00:00 TS 11.1130 138.638 main 1363 1325 PPPP______P___ WP271986 10.9350 138.630 72 -1 11.1498 138.615 5 70 972 7 100 65 7 275 125 11.2148 138.615 4 68 972 11.2648 138.673 T 65 972 11.0006 138.655 4 72 11 296
1986343N05176 1986 117 WP MM MARGE 1986-12-19 06:00:00 TS 11.3660 138.092 70 970 tokyo main 1325 1265 OOOO______P___ jtwc_wp WP271986 11.1000 138.000 75 1 11.4000 138.100 5 70 970 7 100 60 7 300 125 0 11.5000 138.100 4 68 970 11.6000 138.200 T 65 970 11.2300 138.061 4 75 12 292
1986343N05176 1986 117 WP MM MARGE 1986-12-19 09:00:00 TS 11.5718 137.498 main 1265 1203 PPPP______P___ WP271986 11.3423 137.415 77 -1 11.6449 137.530 5 70 967 7 100 67 7 300 137 11.6676 137.493 4 68 967 11.7600 137.615 T 67 967 11.4443 137.436 4 77 12 286
1986343N05176 1986 117 WP MM MARGE 1986-12-19 12:00:00 TS 11.7000 136.880 70 965 tokyo main 1203 1142 OOOO______O___ jtwc_wp WP271986 11.6000 136.800 80 1 11.8000 136.900 5 70 965 7 100 75 7 300 150 0 11.7000 136.900 4 68 965 11.8000 137.000 T 70 965 11.6000 136.800 4 80 12 279
1986343N05176 1986 117 WP MM MARGE 1986-12-19 15:00:00 TS 11.7519 136.277 main 1142 1076 PPPP______P___ WP271986 11.8751 136.093 85 -1 11.8174 136.215 5 75 962 7 100 75 7 300 150 11.5871 136.472 4 72 962 11.7873 136.457 T 70 962 11.6926 136.146 4 82 12 270
1986343N05176 1986 117 WP MM MARGE 1986-12-19 18:00:00 TS 11.7031 135.658 80 960 tokyo main 1076 1010 OOOO______P___ jtwc_wp WP271986 12.0000 135.400 90 2 11.7000 135.500 5 80 960 7 100 75 7 300 150 0 11.4000 136.000 4 77 960 11.7000 135.900 T 70 960 11.7153 135.490 4 85 12 261
1986343N05176 1986 117 WP MM MARGE 1986-12-19 21:00:00 TS 11.5609 135.019 main 999 930 PPPP______P___ WP271986 11.8247 134.835 90 -1 11.4873 134.800 5 80 957 7 100 75 7 300 150 11.2500 135.310 4 77 960 11.5873 135.288 T 72 957 11.6552 134.865 4 87 13 254
1986343N05176 1986 117 WP MM MARGE 1986-12-20 00:00:00 TS 11.3400 134.360 80 955 tokyo main 928 859 OOOO______O___ jtwc_wp WP271986 11.5000 134.300 90 2 11.2000 134.100 5 80 955 7 100 75 7 300 150 0 11.1000 134.500 4 77 960 11.4000 134.600 T 75 955 11.5000 134.300 4 90 14 250
1986343N05176 1986 117 WP MM MARGE 1986-12-20 03:00:00 TS 11.0876 133.715 main 848 777 PPPP______P___ WP271986 11.1998 133.723 92 -1 10.8998 133.408 5 80 955 7 100 75 7 300 150 10.9873 133.673 4 77 957 11.1299 133.830 T 77 955 11.2210 133.941 4 90 14 247
1986343N05176 1986 117 WP MM MARGE 1986-12-20 06:00:00 TS 10.7914 133.046 80 955 tokyo main 766 695 OOOO______P___ jtwc_wp WP271986 10.9000 133.100 95 2 10.6000 132.700 5 80 955 7 100 75 7 300 150 0 10.8000 132.800 4 77 955 10.8000 133.000 T 80 955 10.8568 133.628 4 90 15 246
1986343N05176 1986 117 WP MM MARGE 1986-12-20 09:00:00 TS 10.4659 132.326 main 684 602 PPPP______P___ WP271986 10.6498 132.430 92 -1 10.3500 131.943 5 80 955 7 112 77 7 300 150 10.4226 131.862 4 77 955 10.4425 132.142 T 80 952 10.4644 133.250 4 90 16 246
1986343N05176 1986 117 WP MM MARGE 1986-12-20 12:00:00 TS 10.1400 131.580 80 955 tokyo main 599 519 OOOO______O___ jtwc_wp WP271986 10.4000 131.700 90 2 10.1000 131.200 5 80 955 7 125 80 7 300 150 0 10.0000 131.000 4 77 955 10.1000 131.300 T 80 950 10.1000 132.700 4 90 16 247
1986343N05176 1986 117 WP MM MARGE 1986-12-20 15:00:00 TS 9.83464 130.831 main 506 426 PPPP______P___ WP271986 10.1074 130.915 90 -1 9.79224 130.543 5 80 955 7 125 80 7 300 150 9.65450 130.378 4 82 952 9.83478 130.528 T 80 950 9.78427 131.791 4 90 16 249
1986343N05176 1986 117 WP MM MARGE 1986-12-20 18:00:00 TS 9.56208 130.062 80 955 tokyo main 426 334 OOOO______P___ jtwc_wp WP271986 9.80000 130.100 90 2 9.50000 129.900 5 80 955 7 125 80 7 300 150 0 9.40000 129.800 5 87 950 9.60000 129.800 T 80 950 9.51038 130.711 4 90 16 251
1986343N05176 1986 117 WP MM MARGE 1986-12-20 21:00:00 TS 9.30459 129.251 main 334 245 PPPP______P___ WP271986 9.44732 129.300 90 -1 9.23987 129.215 5 82 952 7 125 80 7 300 150 9.23248 129.072 5 87 948 9.29732 129.092 T 80 950 9.30597 129.575 4 90 17 256
1986343N05176 1986 117 WP MM MARGE 1986-12-21 00:00:00 TS 9.16000 128.440 85 950 tokyo main 235 160 OOOO______O___ jtwc_wp WP271986 9.20000 128.500 90 2 9.10000 128.500 5 85 950 7 125 80 7 300 150 0 9.20000 128.300 5 87 947 9.10000 128.400 T 80 950 9.20000 128.500 4 90 16 266
1986343N05176 1986 117 WP MM MARGE 1986-12-21 03:00:00 TS 9.19725 127.672 main 160 88 PPPP______P___ WP271986 9.17488 127.693 85 -1 9.14735 127.765 5 85 960 7 125 80 7 300 150 9.31243 127.535 5 82 953 9.12482 127.708 T 77 952 9.22679 127.660 4 86 15 277
1986343N05176 1986 117 WP MM MARGE 1986-12-21 06:00:00 TS 9.35007 126.918 85 970 tokyo main 80 21 OOOO______P___ jtwc_wp WP271986 9.30000 126.900 80 1 9.30000 127.000 5 85 970 7 125 80 7 300 150 0 9.50000 126.800 4 77 960 9.30000 127.000 T 75 955 9.35034 126.892 4 82 15 283
1986343N05176 1986 117 WP MM MARGE 1986-12-21 09:00:00 TS 9.52713 126.178 main 21 0 PPPP______P___ WP271986 9.48474 126.150 77 -1 9.44232 126.215 5 72 975 7 92 70 7 210 135 9.65740 126.113 4 72 970 9.52739 126.258 T 72 960 9.52380 126.153 4 78 15 284
1986343N05176 1986 117 WP MM MARGE 1986-12-21 12:00:00 TS 9.72000 125.440 60 980 tokyo main 0 0 OOOO______O___ jtwc_wp WP271986 9.70000 125.400 75 1 9.60000 125.400 4 60 980 9 60 60 9 120 120 0 9.80000 125.500 4 68 980 9.80000 125.500 T 70 965 9.70000 125.400 4 75 15 283
1986343N05176 1986 117 WP MM MARGE 1986-12-21 15:00:00 TS 9.87882 124.679 main 10 0 PPPP______P___ WP271986 9.87225 124.622 67 -1 9.75764 124.513 4 60 985 9 60 60 9 135 135 9.89212 125.015 4 63 980 10.0724 124.743 T 65 970 9.79971 124.503 4 68 15 281
1986343N05176 1986 117 WP MM MARGE 1986-12-21 18:00:00 TS 10.0187 123.919 60 990 tokyo main 10 0 OOOO______P___ jtwc_wp WP271986 10.0000 123.800 60 0 9.90000 123.700 4 60 990 9 60 60 9 150 150 0 10.0000 124.500 3 58 980 10.3000 124.000 STS 60 975 9.89356 123.595 4 62 15 280
1986343N05176 1986 117 WP MM MARGE 1986-12-21 21:00:00 TS 10.1401 123.148 main 0 0 PPPP______P___ WP271986 10.0578 122.847 55 -1 10.0146 123.112 4 55 991 9 9 150 150 10.2077 123.758 3 53 982 10.4298 123.285 STS 57 977 9.99047 122.740 4 56 15 279
1986343N05176 1986 117 WP MM MARGE 1986-12-22 00:00:00 TS 10.2400 122.440 50 992 tokyo main 35 11 OOOO______O___ jtwc_wp WP271986 10.1000 122.000 50 0 10.1000 122.600 4 50 992 0 9 150 150 0 10.4000 123.000 3 48 985 10.5000 122.600 STS 55 980 10.1000 122.000 2 50 13 278
1986343N05176 1986 117 WP MM MARGE 1986-12-22 03:00:00 TS 10.3143 121.859 main 11 11 PPPP______P___ WP271986 10.1771 121.475 45 -1 10.1500 122.000 4 50 994 0 9 125 125 10.4645 122.457 3 43 987 10.5574 121.920 STS 52 980 10.2222 121.441 2 47 11 278
1986343N05176 1986 117 WP MM MARGE 1986-12-22 06:00:00 TS 10.3922 121.340 50 996 tokyo main 65 65 OOOO______P___ jtwc_wp WP271986 10.3000 121.100 40 0 10.2000 121.400 4 50 996 0 9 100 100 0 10.5000 121.900 2 38 990 10.6000 121.300 STS 50 980 10.3611 121.000 2 45 11 280
1986343N05176 1986 117 WP MM MARGE 1986-12-22 09:00:00 TS 10.5034 120.806 main 120 66 PPPP______P___ WP271986 10.4849 120.693 40 -1 10.2774 120.842 4 47 997 0 9 87 87 10.6003 121.093 2 38 990 10.6348 120.770 STS 47 982 10.5194 120.634 2 42 11 284
1986343N05176 1986 117 WP MM MARGE 1986-12-22 12:00:00 TS 10.6400 120.300 45 998 tokyo main 66 32 OOOO______O___ jtwc_wp WP271986 10.7000 120.300 40 0 10.4000 120.300 3 45 998 0 9 75 75 0 10.7000 120.300 2 38 990 10.7000 120.300 TS 45 985 10.7000 120.300 2 40 10 287
1986343N05176 1986 117 WP MM MARGE 1986-12-22 15:00:00 TS 10.7887 119.830 main 21 0 PPPP______P___ WP271986 10.8925 119.885 40 -1 10.5774 119.742 3 42 999 0 9 75 75 10.7496 119.770 2 38 990 10.8125 119.820 TS 42 987 10.9113 119.932 2 38 9 290
1986343N05176 1986 117 WP MM MARGE 1986-12-22 18:00:00 TS 10.9684 119.397 40 1000 tokyo main 0 0 OOOO______P___ jtwc_wp WP271986 11.1000 119.500 40 0 10.8000 119.200 3 40 1000 0 9 75 75 0 10.8000 119.300 2 38 990 11.0000 119.400 TS 40 990 11.1421 119.585 2 37 9 295
1986343N05176 1986 117 WP MM MARGE 1986-12-22 21:00:00 TS 11.1789 118.977 main 43 43 PPPP______P___ WP271986 11.3424 119.192 37 -1 11.0425 118.670 3 37 1001 0 9 57 57 10.8701 118.685 2 38 992 11.2623 119.092 TS 37 992 11.3769 119.245 2 36 9 299
1986343N05176 1986 117 WP MM MARGE 1986-12-23 00:00:00 TS 11.4200 118.580 35 1002 tokyo main 90 90 OOOO______O___ jtwc_wp WP271986 11.6000 118.900 35 0 11.3000 118.200 3 35 1002 0 9 40 40 0 11.0000 118.100 2 38 995 11.6000 118.800 TS 35 995 11.6000 118.900 2 35 9 305
1986343N05176 1986 117 WP MM MARGE 1986-12-23 03:00:00 TS 11.6958 118.210 main 142 142 PPPP______P___ WP271986 11.8725 118.565 35 -1 11.5573 117.835 3 35 1002 0 9 40 40 11.2273 117.670 2 38 995 12.0224 118.438 TS 37 992 11.7994 118.540 2 35 9 304
1986343N05176 1986 117 WP MM MARGE 1986-12-23 06:00:00 TS 11.9463 117.795 35 1002 tokyo main 191 191 OOOO______P___ jtwc_wp WP271986 12.1000 118.200 35 0 11.8000 117.500 3 35 1002 0 9 40 40 0 11.5000 117.300 2 38 995 12.4000 118.000 TS 40 990 11.9780 118.168 2 35 10 297
1986343N05176 1986 117 WP MM MARGE 1986-12-23 09:00:00 TS 12.1497 117.314 main 250 250 PPPP______P___ WP271986 12.2301 117.807 32 -1 12.0225 117.107 3 35 1003 0 9 40 40 11.7725 116.878 2 38 995 12.6175 117.472 TS 40 990 12.1427 117.786 2 35 10 290
1986343N05176 1986 117 WP MM MARGE 1986-12-23 12:00:00 TS 12.3000 116.800 35 1004 tokyo main 308 308 OOOO______O___ jtwc_wp WP271986 12.3000 117.400 XX 30 -5 12.2000 116.700 3 35 1004 0 9 40 40 0 12.0000 116.500 2 38 995 12.7000 116.900 TS 40 990 12.3000 117.400 2 35 10 283
1986343N05176 1986 117 WP MM MARGE 1986-12-23 15:00:00 TS 12.3774 116.292 main 363 363 _PPP__________ WP271986 -1 12.3224 116.307 3 1006 0 9 12.1299 116.227 2 38 995 12.6799 116.342 TS 40 990 2 9 276
1986343N05176 1986 117 WP MM MARGE 1986-12-23 18:00:00 TS 12.4000 115.900 1008 tokyo main 404 404 _OOO__________ -1 12.4000 115.900 2 1008 0 0 0 12.2000 116.000 2 38 995 12.6000 115.800 TS 40 990 2 8 274
1986343N05176 1986 117 WP MM MARGE 1986-12-23 21:00:00 TS 12.4291 115.505 main 437 437 _PPP__________ -1 12.4800 115.458 2 1008 0 0 12.2573 115.787 2 38 997 12.5500 115.270 TS 35 992 2 8 272
1986343N05176 1986 117 WP MM MARGE 1986-12-24 00:00:00 TS 12.4333 115.100 1008 tokyo main 464 464 _OOO__________ -1 12.5000 115.000 2 1008 0 0 0 12.3000 115.500 2 38 1000 12.5000 114.800 TD 30 995 8 268
1986343N05176 1986 117 WP MM MARGE 1986-12-24 03:00:00 TS 12.4050 114.664 main 493 493 _PPP__________ -1 12.4225 114.535 2 1008 0 0 12.3501 115.037 2 33 1001 12.4424 114.420 TD 30 996 9 265
1986343N05176 1986 117 WP MM MARGE 1986-12-24 06:00:00 TS 12.3667 114.233 1008 tokyo main 511 478 _OOO__________ -1 12.3000 114.100 2 1008 0 0 0 12.4000 114.500 1 29 1002 12.4000 114.100 TD 30 998 8 267
1986343N05176 1986 117 WP MM MARGE 1986-12-24 09:00:00 TS 12.3624 113.838 main 467 435 _PPP__________ -1 12.1999 113.728 2 1008 0 0 12.4950 113.985 1 29 1002 12.3924 113.800 TD 30 999 8 267
1986343N05176 1986 117 WP MM MARGE 1986-12-24 12:00:00 TS 12.3333 113.467 1008 tokyo main 435 392 _OOO__________ -1 12.1000 113.400 2 1008 0 0 0 12.5000 113.500 1 29 1002 12.4000 113.500 TD 30 1000 7 260
1986343N05176 1986 117 WP MM MARGE 1986-12-24 15:00:00 TS 12.2440 113.124 main 393 363 _PPP__________ -1 12.0149 113.108 2 1008 0 0 12.2874 113.085 1 29 1003 12.4299 113.180 TD 30 1000 7 249
1986343N05176 1986 117 WP MM MARGE 1986-12-24 18:00:00 TS 12.0727 112.764 1008 tokyo main 363 324 _OOO__________ -1 11.9000 112.800 2 1008 0 0 0 12.0000 112.700 1 29 1005 12.4000 112.800 TD 30 1000 8 242
1986343N05176 1986 117 WP MM MARGE 1986-12-24 21:00:00 TS 11.8570 112.367 main 324 290 _PPP__________ -1 11.7224 112.430 2 1008 0 0 11.7998 112.323 1 26 1005 12.2403 112.327 TD 27 1001 9 240
1986343N05176 1986 117 WP MM MARGE 1986-12-25 00:00:00 TS 11.6000 111.933 1008 tokyo main 284 246 _OOO__________ -1 11.5000 112.000 2 1008 0 0 0 11.6000 111.900 1 23 1005 12.0000 111.800 TD 25 1002 11 240
1986343N05176 1986 117 WP MM MARGE 1986-12-25 03:00:00 TS 11.3338 111.429 main 238 196 _PP___________ -1 11.2651 111.492 2 1008 0 0 11.4025 111.365 1 23 1005 TD 11 241
1986343N05176 1986 117 WP MM MARGE 1986-12-25 06:00:00 TS 11.0429 110.914 1008 tokyo main 201 180 _OO___________ -1 11.0000 111.000 2 1008 0 0 0 11.1000 110.800 1 23 1005 11 234
1986343N05176 1986 117 WP MM MARGE 1986-12-25 09:00:00 TS 10.6741 110.517 main 180 172 _PP___________ -1 10.7073 110.635 2 1008 0 0 10.6076 110.282 1 23 1005 10 224
1986343N05176 1986 117 WP MM MARGE 1986-12-25 12:00:00 TS 10.3000 110.175 1008 tokyo main 179 172 _OO___________ -1 10.4000 110.300 2 1008 0 0 0 10.0000 109.800 1 23 1005 8 226
1986343N05176 1986 117 WP MM MARGE 1986-12-25 15:00:00 TS 10.0977 109.917 main 175 173 _P____________ -1 10.0977 109.917 2 1009 0 0 1 8 233
1986343N05176 1986 117 WP MM MARGE 1986-12-25 18:00:00 TS 9.80000 109.500 1010 tokyo main 179 _O____________ -1 9.80000 109.500 2 1010 0 0 0 10 234

デジタル台風データ・検索

IBTrACS Databaseについて

本データベースは、米国NOAAが公開する1842年以降の世界の熱帯低気圧のベストトラックデータアーカイブInternational Best Track Archive for Climate Stewardship (IBTrACS)を、ウェブで閲覧しやすい形式に変換したものです。

最終更新日:2021-10-21